Time;durP1;ratioP1;P1;durP2;ratioP2;P2;SDS_P1;SDS_P2;PMS_P1;PMS_P2;Temp;Humidity;BMP_temperature;BMP_pressure;BME280_temperature;BME280_humidity;BME280_pressure;Samples;Min_cycle;Max_cycle;Signal;HPM_P1;HPM_P2
2022/06/27 00:00:33;;;;;;;0.20;0.20;;;;;;;;;;6168195;23;20474;-93
2022/06/27 00:02:59;;;;;;;0.10;0.10;;;;;;;;;;6169151;23;20016;-93
2022/06/27 00:05:25;;;;;;;0.10;0.10;;;;;;;;;;6168463;23;20012;-92
2022/06/27 00:07:51;;;;;;;0.10;0.10;;;;;;;;;;6168770;23;20500;-92
2022/06/27 00:10:17;;;;;;;0.10;0.10;;;;;;;;;;6168710;23;20020;-93
2022/06/27 00:12:43;;;;;;;0.10;0.10;;;;;;;;;;6168694;23;20019;-92
2022/06/27 00:15:09;;;;;;;0.10;0.10;;;;;;;;;;6168418;23;20058;-92
2022/06/27 00:17:35;;;;;;;0.10;0.10;;;;;;;;;;6168576;23;20005;-93
2022/06/27 00:20:01;;;;;;;0.10;0.10;;;;;;;;;;6168908;23;20008;-93
2022/06/27 00:22:27;;;;;;;0.10;0.10;;;;;;;;;;6168700;23;20016;-93
2022/06/27 00:24:53;;;;;;;0.10;0.10;;;;;;;;;;6168919;23;20008;-93
2022/06/27 00:27:19;;;;;;;0.10;0.10;;;;;;;;;;6170612;23;20012;-93
2022/06/27 00:29:46;;;;;;;0.10;0.10;;;;;;;;;;6170418;23;20008;-93
2022/06/27 00:32:12;;;;;;;0.10;0.10;;;;;;;;;;6170247;23;20008;-93
2022/06/27 00:34:38;;;;;;;0.10;0.10;;;;;;;;;;6194692;23;20008;-92
2022/06/27 00:37:04;;;;;;;0.10;0.10;;;;;;;;;;6170580;23;20445;-92
2022/06/27 00:39:30;;;;;;;0.10;0.10;;;;;;;;;;6170764;23;20015;-93
2022/06/27 00:41:56;;;;;;;0.10;0.10;;;;;;;;;;6195518;23;20008;-93
2022/06/27 00:44:29;;;;;;;0.20;0.20;;;;;;;;;;6170281;23;20012;-92
2022/06/27 00:46:55;;;;;;;0.10;0.10;;;;;;;;;;6194950;23;20016;-93
2022/06/27 00:49:21;;;;;;;0.10;0.10;;;;;;;;;;6170441;23;20074;-93
2022/06/27 00:51:47;;;;;;;0.10;0.10;;;;;;;;;;6170689;23;20054;-92
2022/06/27 00:54:13;;;;;;;0.10;0.10;;;;;;;;;;6170814;23;20023;-92
2022/06/27 00:56:39;;;;;;;0.10;0.10;;;;;;;;;;6170555;23;20023;-92
2022/06/27 00:59:05;;;;;;;0.10;0.10;;;;;;;;;;6170666;23;20019;-93
2022/06/27 01:01:31;;;;;;;0.10;0.10;;;;;;;;;;6194976;23;20381;-92
2022/06/27 01:04:00;;;;;;;0.10;0.10;;;;;;;;;;6170007;23;20066;-93
2022/06/27 01:06:26;;;;;;;0.10;0.10;;;;;;;;;;6170423;23;20119;-92
2022/06/27 01:08:52;;;;;;;0.10;0.10;;;;;;;;;;6170695;23;20012;-94
2022/06/27 01:11:18;;;;;;;0.10;0.10;;;;;;;;;;6170171;23;20023;-93
2022/06/27 01:13:44;;;;;;;0.10;0.10;;;;;;;;;;6170724;23;20013;-93
2022/06/27 01:16:10;;;;;;;0.10;0.10;;;;;;;;;;6170273;23;20013;-93
2022/06/27 01:18:36;;;;;;;0.20;0.20;;;;;;;;;;6170351;23;20008;-92
2022/06/27 01:21:02;;;;;;;0.10;0.10;;;;;;;;;;6170529;22;20009;-93
2022/06/27 01:23:28;;;;;;;0.10;0.10;;;;;;;;;;6170345;23;20091;-93
2022/06/27 01:25:54;;;;;;;0.10;0.10;;;;;;;;;;6170355;23;20095;-93
2022/06/27 01:28:20;;;;;;;0.10;0.10;;;;;;;;;;6170213;23;20101;-93
2022/06/27 01:30:47;;;;;;;0.10;0.10;;;;;;;;;;6169838;22;20016;-93
2022/06/27 01:33:13;;;;;;;0.10;0.10;;;;;;;;;;6170102;23;20012;-94
2022/06/27 01:35:39;;;;;;;0.10;0.10;;;;;;;;;;6170424;23;20441;-93
2022/06/27 01:38:06;;;;;;;0.10;0.10;;;;;;;;;;6170306;23;20012;-93
2022/06/27 01:40:32;;;;;;;0.10;0.10;;;;;;;;;;6169711;23;20338;-93
2022/06/27 01:42:58;;;;;;;0.10;0.10;;;;;;;;;;6170276;23;20008;-93
2022/06/27 01:45:24;;;;;;;0.10;0.10;;;;;;;;;;6169428;23;20341;-92
2022/06/27 01:47:51;;;;;;;0.10;0.10;;;;;;;;;;6170322;23;20019;-93
2022/06/27 01:50:17;;;;;;;0.10;0.10;;;;;;;;;;6169575;23;20016;-93
2022/06/27 01:52:43;;;;;;;0.10;0.10;;;;;;;;;;6170057;23;20529;-93
2022/06/27 01:55:09;;;;;;;0.10;0.10;;;;;;;;;;6170183;23;20052;-93
2022/06/27 01:57:35;;;;;;;0.10;0.10;;;;;;;;;;6169376;23;20043;-93
2022/06/27 02:00:01;;;;;;;0.10;0.10;;;;;;;;;;6169573;23;20503;-93
2022/06/27 02:02:27;;;;;;;0.10;0.10;;;;;;;;;;6194629;23;20012;-93
2022/06/27 02:04:53;;;;;;;0.10;0.10;;;;;;;;;;6169807;23;20039;-94
2022/06/27 02:07:19;;;;;;;0.20;0.20;;;;;;;;;;6170088;23;20054;-93
2022/06/27 02:09:45;;;;;;;0.10;0.10;;;;;;;;;;6169658;23;20410;-93
2022/06/27 02:12:22;;;;;;;0.10;0.10;;;;;;;;;;6169583;23;20008;-93
2022/06/27 02:14:52;;;;;;;0.15;0.15;;;;;;;;;;6171756;23;20298;-93
2022/06/27 02:17:18;;;;;;;0.10;0.10;;;;;;;;;;6169382;23;20327;-93
2022/06/27 02:19:44;;;;;;;0.10;0.10;;;;;;;;;;6169503;23;20406;-93
2022/06/27 02:22:10;;;;;;;0.10;0.10;;;;;;;;;;6169858;23;20012;-93
2022/06/27 02:24:37;;;;;;;0.10;0.10;;;;;;;;;;6169886;23;20427;-93
2022/06/27 02:27:03;;;;;;;0.10;0.10;;;;;;;;;;6169522;23;20468;-93
2022/06/27 02:29:29;;;;;;;0.10;0.10;;;;;;;;;;6169899;23;20122;-93
2022/06/27 02:31:55;;;;;;;0.10;0.10;;;;;;;;;;6169941;23;20012;-93
2022/06/27 02:34:21;;;;;;;0.10;0.10;;;;;;;;;;6169540;23;20016;-93
2022/06/27 02:36:48;;;;;;;0.10;0.10;;;;;;;;;;6169599;23;20016;-92
2022/06/27 02:39:19;;;;;;;0.10;0.10;;;;;;;;;;6169719;23;20012;-92
2022/06/27 02:41:45;;;;;;;0.52;0.20;;;;;;;;;;6169363;23;20311;-92
2022/06/27 02:44:14;;;;;;;0.10;0.10;;;;;;;;;;6169666;23;20342;-93
2022/06/27 02:46:40;;;;;;;0.10;0.10;;;;;;;;;;6194173;23;20023;-92
2022/06/27 02:49:07;;;;;;;0.10;0.10;;;;;;;;;;6169162;23;20020;-92
2022/06/27 02:51:37;;;;;;;0.10;0.10;;;;;;;;;;6168811;23;20024;-92
2022/06/27 02:54:21;;;;;;;0.10;0.10;;;;;;;;;;6169122;23;20023;-91
2022/06/27 02:56:50;;;;;;;0.10;0.10;;;;;;;;;;6169354;23;20024;-92
2022/06/27 02:59:17;;;;;;;0.10;0.10;;;;;;;;;;6194136;23;20312;-92
2022/06/27 03:01:43;;;;;;;0.10;0.10;;;;;;;;;;6168933;23;20012;-92
2022/06/27 03:04:09;;;;;;;0.10;0.10;;;;;;;;;;6169207;23;20008;-92
2022/06/27 03:06:35;;;;;;;0.10;0.10;;;;;;;;;;6169269;23;20082;-92
2022/06/27 03:09:01;;;;;;;0.10;0.10;;;;;;;;;;6169058;23;20016;-92
2022/06/27 03:11:28;;;;;;;0.20;0.20;;;;;;;;;;6169087;23;20492;-91
2022/06/27 03:13:55;;;;;;;0.10;0.10;;;;;;;;;;6218853;23;20051;-92
2022/06/27 03:16:22;;;;;;;0.10;0.10;;;;;;;;;;6168980;23;20020;-91
2022/06/27 03:18:48;;;;;;;0.20;0.20;;;;;;;;;;6194114;23;20101;-92
2022/06/27 03:21:17;;;;;;;0.10;0.10;;;;;;;;;;6169292;23;20008;-91
2022/06/27 03:23:43;;;;;;;0.10;0.10;;;;;;;;;;6169441;23;20044;-91
2022/06/27 03:26:09;;;;;;;0.20;0.20;;;;;;;;;;6168886;23;20066;-92
2022/06/27 03:28:35;;;;;;;0.10;0.10;;;;;;;;;;6169080;23;20024;-91
2022/06/27 03:31:01;;;;;;;0.10;0.10;;;;;;;;;;6169328;22;20441;-92
2022/06/27 03:33:27;;;;;;;0.10;0.10;;;;;;;;;;6169567;23;20020;-92
2022/06/27 03:35:53;;;;;;;0.10;0.10;;;;;;;;;;6169153;23;20330;-92
2022/06/27 03:38:19;;;;;;;0.10;0.10;;;;;;;;;;6169250;23;20019;-92
2022/06/27 03:40:48;;;;;;;0.10;0.10;;;;;;;;;;6193739;23;20062;-92
2022/06/27 03:43:14;;;;;;;0.10;0.10;;;;;;;;;;6169169;23;20062;-92
2022/06/27 03:45:40;;;;;;;0.10;0.10;;;;;;;;;;6168987;23;20065;-92
2022/06/27 03:48:06;;;;;;;0.20;0.20;;;;;;;;;;6193803;23;20091;-92
2022/06/27 03:50:32;;;;;;;0.10;0.10;;;;;;;;;;6169025;23;20027;-92
2022/06/27 03:52:58;;;;;;;0.10;0.10;;;;;;;;;;6193623;23;20457;-92
2022/06/27 03:55:24;;;;;;;0.10;0.10;;;;;;;;;;6169185;23;20018;-92
2022/06/27 03:57:53;;;;;;;0.10;0.10;;;;;;;;;;6193719;23;20507;-92
2022/06/27 04:00:20;;;;;;;0.20;0.20;;;;;;;;;;6193928;23;20013;-92
2022/06/27 04:02:46;;;;;;;0.10;0.10;;;;;;;;;;6170700;23;20008;-92
2022/06/27 04:05:12;;;;;;;0.10;0.10;;;;;;;;;;6171220;23;20444;-92
2022/06/27 04:07:40;;;;;;;0.10;0.10;;;;;;;;;;6170438;23;20089;-91
2022/06/27 04:10:07;;;;;;;0.10;0.10;;;;;;;;;;6195963;23;20072;-92
2022/06/27 04:12:33;;;;;;;0.10;0.10;;;;;;;;;;6170596;23;20019;-93
2022/06/27 04:14:59;;;;;;;0.10;0.10;;;;;;;;;;6171087;23;20500;-92
2022/06/27 04:17:25;;;;;;;0.10;0.10;;;;;;;;;;6171051;23;20043;-92
2022/06/27 04:19:51;;;;;;;0.10;0.10;;;;;;;;;;6195377;23;20012;-92
2022/06/27 04:22:17;;;;;;;0.10;0.10;;;;;;;;;;6195218;23;20082;-92
2022/06/27 04:24:43;;;;;;;0.10;0.10;;;;;;;;;;6170824;23;20014;-92
2022/06/27 04:27:09;;;;;;;0.10;0.10;;;;;;;;;;6170317;23;20540;-92
2022/06/27 04:29:35;;;;;;;0.10;0.10;;;;;;;;;;6170567;23;20016;-92
2022/06/27 04:32:01;;;;;;;0.10;0.10;;;;;;;;;;6170845;23;20016;-92
2022/06/27 04:34:27;;;;;;;0.20;0.20;;;;;;;;;;6171208;23;20346;-92
2022/06/27 04:36:53;;;;;;;0.10;0.10;;;;;;;;;;6170671;23;20442;-92
2022/06/27 04:39:20;;;;;;;0.10;0.10;;;;;;;;;;6170615;23;20014;-92
2022/06/27 04:41:47;;;;;;;0.10;0.10;;;;;;;;;;6172692;23;20495;-92
2022/06/27 04:44:13;;;;;;;0.10;0.10;;;;;;;;;;6170405;23;20008;-92
2022/06/27 04:46:40;;;;;;;0.10;0.10;;;;;;;;;;6170202;23;20043;-92
2022/06/27 04:49:06;;;;;;;0.10;0.10;;;;;;;;;;6170409;23;20023;-91
2022/06/27 04:51:32;;;;;;;0.10;0.10;;;;;;;;;;6170795;23;20020;-91
2022/06/27 04:53:58;;;;;;;0.10;0.10;;;;;;;;;;6171172;23;20030;-91
2022/06/27 04:56:25;;;;;;;0.10;0.10;;;;;;;;;;6170590;23;20353;-92
2022/06/27 04:58:51;;;;;;;0.10;0.10;;;;;;;;;;6170714;23;20008;-93
2022/06/27 05:01:17;;;;;;;0.20;0.20;;;;;;;;;;6170819;23;20091;-92
2022/06/27 05:03:43;;;;;;;0.10;0.10;;;;;;;;;;6198168;23;20019;-92
2022/06/27 05:06:09;;;;;;;0.10;0.10;;;;;;;;;;6170139;23;20092;-91
2022/06/27 05:08:37;;;;;;;0.10;0.10;;;;;;;;;;6170196;23;20315;-92
2022/06/27 05:11:03;;;;;;;0.10;0.10;;;;;;;;;;6172003;22;20012;-91
2022/06/27 05:13:29;;;;;;;0.10;0.10;;;;;;;;;;6170346;23;20480;-92
2022/06/27 05:15:55;;;;;;;0.10;0.10;;;;;;;;;;6170161;23;20020;-92
2022/06/27 05:18:21;;;;;;;0.10;0.10;;;;;;;;;;6169944;23;20040;-92
2022/06/27 05:20:49;;;;;;;0.10;0.10;;;;;;;;;;6169903;22;20070;-92
2022/06/27 05:23:15;;;;;;;0.13;0.13;;;;;;;;;;6170162;23;20008;-91
2022/06/27 05:25:43;;;;;;;0.10;0.10;;;;;;;;;;6195518;23;20050;-92
2022/06/27 05:28:09;;;;;;;0.10;0.10;;;;;;;;;;6170495;23;20012;-92
2022/06/27 05:30:35;;;;;;;0.10;0.10;;;;;;;;;;6169869;23;20023;-91
2022/06/27 05:33:01;;;;;;;0.10;0.10;;;;;;;;;;6169910;23;20012;-92
2022/06/27 05:35:28;;;;;;;0.10;0.10;;;;;;;;;;6169793;23;20012;-92
2022/06/27 05:37:54;;;;;;;0.10;0.10;;;;;;;;;;6170127;23;20445;-92
2022/06/27 05:40:21;;;;;;;0.10;0.10;;;;;;;;;;6169896;23;20445;-92
2022/06/27 05:42:49;;;;;;;0.10;0.10;;;;;;;;;;6169738;23;20091;-92
2022/06/27 05:45:15;;;;;;;0.10;0.10;;;;;;;;;;6169985;23;20015;-92
2022/06/27 05:47:42;;;;;;;0.10;0.10;;;;;;;;;;6169625;23;20012;-92
2022/06/27 05:50:08;;;;;;;0.10;0.10;;;;;;;;;;6169490;23;20043;-92
2022/06/27 05:52:34;;;;;;;0.20;0.20;;;;;;;;;;6169612;23;20016;-91
2022/06/27 05:55:01;;;;;;;0.10;0.10;;;;;;;;;;6169374;23;20389;-92
2022/06/27 05:57:28;;;;;;;0.20;0.20;;;;;;;;;;6169800;23;20093;-92
2022/06/27 05:59:54;;;;;;;0.10;0.10;;;;;;;;;;6194733;23;20043;-92
2022/06/27 06:02:21;;;;;;;0.10;0.10;;;;;;;;;;6169731;23;20099;-92
2022/06/27 06:04:47;;;;;;;0.10;0.10;;;;;;;;;;6169884;23;20016;-93
2022/06/27 06:07:14;;;;;;;0.10;0.10;;;;;;;;;;6169548;23;20012;-92
2022/06/27 06:09:41;;;;;;;0.10;0.10;;;;;;;;;;6194060;23;20012;-92
2022/06/27 06:12:09;;;;;;;0.10;0.10;;;;;;;;;;6194373;23;20449;-91
2022/06/27 06:14:35;;;;;;;0.10;0.10;;;;;;;;;;6170282;23;20041;-92
2022/06/27 06:17:02;;;;;;;0.10;0.10;;;;;;;;;;6169586;23;20016;-92
2022/06/27 06:19:29;;;;;;;0.10;0.10;;;;;;;;;;6194320;23;20018;-92
2022/06/27 06:21:58;;;;;;;0.10;0.10;;;;;;;;;;6195549;23;20428;-92
2022/06/27 06:24:27;;;;;;;0.10;0.10;;;;;;;;;;6168972;23;20044;-92
2022/06/27 06:26:53;;;;;;;0.10;0.10;;;;;;;;;;6169678;23;20016;-92
2022/06/27 06:29:21;;;;;;;0.10;0.10;;;;;;;;;;6169775;23;20020;-92
2022/06/27 06:31:48;;;;;;;0.10;0.10;;;;;;;;;;6169514;23;20020;-92
2022/06/27 06:34:30;;;;;;;0.10;0.10;;;;;;;;;;5168440;27;20382;-93
2022/06/27 06:36:56;;;;;;;0.13;0.13;;;;;;;;;;5116575;27;20043;-93
2022/06/27 06:39:22;;;;;;;0.10;0.10;;;;;;;;;;5133697;27;20460;-93
2022/06/27 06:41:48;;;;;;;0.10;0.10;;;;;;;;;;5112998;28;20031;-93
2022/06/27 06:44:15;;;;;;;0.10;0.10;;;;;;;;;;5096075;28;20081;-94
2022/06/27 06:46:41;;;;;;;0.10;0.10;;;;;;;;;;5096100;28;20039;-93
2022/06/27 06:49:09;;;;;;;0.10;0.10;;;;;;;;;;5096121;28;20042;-93
2022/06/27 06:51:36;;;;;;;0.10;0.10;;;;;;;;;;5096092;28;20039;-93
2022/06/27 06:54:03;;;;;;;0.10;0.10;;;;;;;;;;5095886;28;20096;-92
2022/06/27 06:56:30;;;;;;;0.10;0.10;;;;;;;;;;5095885;28;20042;-92
2022/06/27 06:58:57;;;;;;;0.10;0.10;;;;;;;;;;5095920;28;20035;-93
2022/06/27 07:01:23;;;;;;;0.10;0.10;;;;;;;;;;5095532;28;20039;-93
2022/06/27 07:03:50;;;;;;;0.10;0.10;;;;;;;;;;5129598;27;20509;-93
2022/06/27 07:06:17;;;;;;;0.10;0.10;;;;;;;;;;5095550;28;20486;-93
2022/06/27 07:08:44;;;;;;;0.10;0.10;;;;;;;;;;5095373;28;20039;-92
2022/06/27 07:11:10;;;;;;;0.10;0.10;;;;;;;;;;5095731;28;20047;-93
2022/06/27 07:13:38;;;;;;;0.10;0.10;;;;;;;;;;5095406;28;20039;-93
2022/06/27 07:16:05;;;;;;;0.10;0.10;;;;;;;;;;5095383;28;20045;-93
2022/06/27 07:18:33;;;;;;;0.10;0.10;;;;;;;;;;5095483;28;20134;-93
2022/06/27 07:21:00;;;;;;;0.10;0.10;;;;;;;;;;5095192;28;20505;-93
2022/06/27 07:23:26;;;;;;;0.10;0.10;;;;;;;;;;5095662;28;20465;-93
2022/06/27 07:25:53;;;;;;;0.10;0.10;;;;;;;;;;5095285;28;20047;-93
2022/06/27 07:28:22;;;;;;;0.10;0.10;;;;;;;;;;5095319;28;20046;-93
2022/06/27 07:30:48;;;;;;;0.20;0.20;;;;;;;;;;5095525;28;20035;-93
2022/06/27 07:33:15;;;;;;;0.10;0.10;;;;;;;;;;5094483;28;20055;-93
2022/06/27 07:35:41;;;;;;;0.10;0.10;;;;;;;;;;5095564;28;20379;-92
2022/06/27 07:38:07;;;;;;;0.10;0.10;;;;;;;;;;5094909;28;20042;-93
2022/06/27 07:40:34;;;;;;;0.20;0.20;;;;;;;;;;5128987;27;20035;-93
2022/06/27 07:43:03;;;;;;;0.10;0.10;;;;;;;;;;5130489;27;20073;-93
2022/06/27 07:45:29;;;;;;;0.10;0.10;;;;;;;;;;5083772;28;20039;-93
2022/06/27 07:47:55;;;;;;;0.10;0.10;;;;;;;;;;5098077;28;20465;-93
2022/06/27 07:51:03;;;;;;;0.10;0.10;;;;;;;;;;5081347;28;20061;-93
2022/06/27 07:53:11;;;;;;;0.10;0.10;;;;;;;;;;5093059;28;20479;-93
2022/06/27 07:55:39;;;;;;;0.10;0.10;;;;;;;;;;5081274;28;20126;-93
2022/06/27 07:58:07;;;;;;;0.10;0.10;;;;;;;;;;5081256;28;20058;-93
2022/06/27 08:00:33;;;;;;;0.10;0.10;;;;;;;;;;5081108;28;20071;-92
2022/06/27 08:03:36;;;;;;;0.20;0.20;;;;;;;;;;5081038;28;20490;-93
2022/06/27 08:05:46;;;;;;;0.10;0.10;;;;;;;;;;5100593;28;20402;-92
2022/06/27 08:08:12;;;;;;;0.10;0.10;;;;;;;;;;5098129;28;20079;-93
2022/06/27 08:10:38;;;;;;;0.13;0.13;;;;;;;;;;5080706;28;20039;-93
2022/06/27 08:13:04;;;;;;;0.10;0.10;;;;;;;;;;5080517;28;20118;-93
2022/06/27 08:15:29;;;;;;;0.10;0.10;;;;;;;;;;5080796;28;20036;-93
2022/06/27 08:17:58;;;;;;;0.10;0.10;;;;;;;;;;5080819;28;20040;-93
2022/06/27 08:20:24;;;;;;;0.10;0.10;;;;;;;;;;5114289;28;20475;-93
2022/06/27 08:22:51;;;;;;;0.10;0.10;;;;;;;;;;5080660;28;20110;-93
2022/06/27 08:25:17;;;;;;;0.10;0.10;;;;;;;;;;5080469;28;20085;-93
2022/06/27 08:27:45;;;;;;;0.10;0.10;;;;;;;;;;5080519;28;20559;-93
2022/06/27 08:30:14;;;;;;;0.10;0.10;;;;;;;;;;5080863;28;20172;-93
2022/06/27 08:32:40;;;;;;;0.10;0.10;;;;;;;;;;5080334;28;20039;-93
2022/06/27 08:35:07;;;;;;;0.10;0.10;;;;;;;;;;5080598;28;20483;-93
2022/06/27 08:37:33;;;;;;;0.10;0.10;;;;;;;;;;5097260;28;20044;-93
2022/06/27 08:40:01;;;;;;;0.10;0.10;;;;;;;;;;5080305;28;20042;-93
2022/06/27 08:42:27;;;;;;;0.17;0.17;;;;;;;;;;5080342;28;20124;-93
2022/06/27 08:44:53;;;;;;;0.10;0.10;;;;;;;;;;5079904;28;20085;-93
2022/06/27 08:47:21;;;;;;;0.10;0.10;;;;;;;;;;5080504;28;20040;-93
2022/06/27 08:49:51;;;;;;;0.10;0.10;;;;;;;;;;5080470;28;20039;-93
2022/06/27 08:52:18;;;;;;;0.10;0.10;;;;;;;;;;5097671;28;20062;-93
2022/06/27 08:54:45;;;;;;;0.20;0.20;;;;;;;;;;5080358;28;20491;-93
2022/06/27 08:57:11;;;;;;;0.10;0.10;;;;;;;;;;5079204;28;20130;-92
2022/06/27 08:59:37;;;;;;;0.10;0.10;;;;;;;;;;5079767;28;20059;-92
2022/06/27 09:02:04;;;;;;;0.10;0.10;;;;;;;;;;5079834;28;20042;-93
2022/06/27 09:04:31;;;;;;;0.10;0.10;;;;;;;;;;5079831;28;20052;-93
2022/06/27 09:06:58;;;;;;;0.10;0.10;;;;;;;;;;5079929;28;20035;-92
2022/06/27 09:09:27;;;;;;;0.10;0.10;;;;;;;;;;5079703;28;20035;-93
2022/06/27 09:11:54;;;;;;;0.10;0.10;;;;;;;;;;5080010;28;20039;-93
2022/06/27 09:14:33;;;;;;;0.10;0.10;;;;;;;;;;5079656;28;20048;-93
2022/06/27 09:17:01;;;;;;;0.10;0.10;;;;;;;;;;5079389;28;20032;-93
2022/06/27 09:19:46;;;;;;;0.10;0.10;;;;;;;;;;5113099;28;20036;-92
2022/06/27 09:22:15;;;;;;;0.10;0.10;;;;;;;;;;5079655;28;20040;-93
2022/06/27 09:25:00;;;;;;;0.10;0.10;;;;;;;;;;5079651;28;20096;-93
2022/06/27 09:27:38;;;;;;;0.10;0.10;;;;;;;;;;5113164;28;20044;-93
2022/06/27 09:30:24;;;;;;;0.15;0.15;;;;;;;;;;5112824;28;20095;-93
2022/06/27 09:32:55;;;;;;;0.10;0.10;;;;;;;;;;5095660;28;20064;-94
2022/06/27 09:35:24;;;;;;;0.10;0.10;;;;;;;;;;5079457;28;20049;-92
2022/06/27 09:37:51;;;;;;;0.10;0.10;;;;;;;;;;5112559;28;20146;-92
2022/06/27 09:40:17;;;;;;;0.10;0.10;;;;;;;;;;5078936;28;20055;-93
2022/06/27 09:42:44;;;;;;;0.10;0.10;;;;;;;;;;5078965;28;20036;-93
2022/06/27 09:45:10;;;;;;;0.10;0.10;;;;;;;;;;5079377;28;20040;-93
2022/06/27 09:47:36;;;;;;;0.10;0.10;;;;;;;;;;5078662;28;20039;-93
2022/06/27 09:50:03;;;;;;;0.10;0.10;;;;;;;;;;5078613;28;20035;-92
2022/06/27 09:52:29;;;;;;;0.10;0.10;;;;;;;;;;5078802;28;20039;-93
2022/06/27 09:54:55;;;;;;;0.10;0.10;;;;;;;;;;5078637;28;20042;-92
2022/06/27 09:57:21;;;;;;;0.20;0.20;;;;;;;;;;5078799;28;20071;-93
2022/06/27 09:59:48;;;;;;;0.10;0.10;;;;;;;;;;5078753;28;20081;-92
2022/06/27 10:02:16;;;;;;;0.10;0.10;;;;;;;;;;5078328;28;20035;-92
2022/06/27 10:04:43;;;;;;;0.10;0.10;;;;;;;;;;5078622;28;20457;-93
2022/06/27 10:07:09;;;;;;;0.20;0.20;;;;;;;;;;5078189;28;20078;-92
2022/06/27 10:09:38;;;;;;;0.10;0.10;;;;;;;;;;5078316;28;20036;-93
2022/06/27 10:12:23;;;;;;;0.20;0.20;;;;;;;;;;5080889;28;20142;-92
2022/06/27 10:15:08;;;;;;;0.10;0.10;;;;;;;;;;5112390;28;20082;-93
2022/06/27 10:17:35;;;;;;;0.10;0.10;;;;;;;;;;5112111;28;20054;-93
2022/06/27 10:20:01;;;;;;;0.10;0.10;;;;;;;;;;5078691;28;20051;-92
2022/06/27 10:22:27;;;;;;;0.10;0.10;;;;;;;;;;5078150;28;20501;-92
2022/06/27 10:24:53;;;;;;;0.10;0.10;;;;;;;;;;5078493;28;20035;-93
2022/06/27 10:27:29;;;;;;;0.10;0.10;;;;;;;;;;5078523;28;20092;-93
2022/06/27 10:29:55;;;;;;;0.10;0.10;;;;;;;;;;5078295;28;20035;-93
2022/06/27 10:32:40;;;;;;;0.20;0.20;;;;;;;;;;5077737;28;20116;-93
2022/06/27 10:35:09;;;;;;;0.10;0.10;;;;;;;;;;5093837;28;20039;-93
2022/06/27 10:37:35;;;;;;;0.10;0.10;;;;;;;;;;5078972;28;20453;-94
2022/06/27 10:40:20;;;;;;;0.10;0.10;;;;;;;;;;5096338;28;20031;-95
2022/06/27 10:42:54;;;;;;;0.10;0.10;;;;;;;;;;5135323;28;20054;-94
2022/06/27 10:45:20;;;;;;;0.10;0.10;;;;;;;;;;5095677;28;20043;-94
2022/06/27 10:47:47;;;;;;;0.10;0.10;;;;;;;;;;5112332;28;20513;-94
2022/06/27 10:50:13;;;;;;;0.10;0.10;;;;;;;;;;5078367;28;20046;-94
2022/06/27 10:52:39;;;;;;;0.10;0.10;;;;;;;;;;5078384;28;20035;-94
2022/06/27 10:55:25;;;;;;;0.10;0.10;;;;;;;;;;5112452;28;20126;-94
2022/06/27 10:57:51;;;;;;;0.10;0.10;;;;;;;;;;5078795;28;20040;-95
2022/06/27 11:00:36;;;;;;;0.10;0.10;;;;;;;;;;5079091;28;20399;-94
2022/06/27 11:03:02;;;;;;;0.10;0.10;;;;;;;;;;5111805;28;20040;-94
2022/06/27 11:05:29;;;;;;;0.10;0.10;;;;;;;;;;5083865;28;20040;-94
2022/06/27 11:08:01;;;;;;;0.10;0.10;;;;;;;;;;5098785;28;20090;-94
2022/06/27 11:10:27;;;;;;;0.10;0.10;;;;;;;;;;5080165;28;20039;-94
2022/06/27 11:12:53;;;;;;;0.10;0.10;;;;;;;;;;5079650;28;20048;-93
2022/06/27 11:15:20;;;;;;;0.10;0.10;;;;;;;;;;5081871;28;20479;-93
2022/06/27 11:17:46;;;;;;;0.10;0.10;;;;;;;;;;5080659;28;20036;-94
2022/06/27 11:20:13;;;;;;;0.10;0.10;;;;;;;;;;5082937;28;20043;-94
2022/06/27 11:22:39;;;;;;;0.10;0.10;;;;;;;;;;5115732;28;20046;-95
2022/06/27 11:32:02;;;;;;;0.10;0.10;;;;;;;;;;4992817;28;20064;-94
2022/06/27 11:34:29;;;;;;;0.10;0.10;;;;;;;;;;5002475;28;20048;-93
2022/06/27 11:36:55;;;;;;;0.10;0.10;;;;;;;;;;5003205;28;20033;-95
2022/06/27 11:39:34;;;;;;;0.10;0.10;;;;;;;;;;5003070;28;20033;-95
2022/06/27 11:42:12;;;;;;;0.10;0.10;;;;;;;;;;5002536;28;20077;-95
2022/06/27 11:44:39;;;;;;;0.20;0.20;;;;;;;;;;5002484;28;20041;-94
2022/06/27 11:47:09;;;;;;;0.10;0.10;;;;;;;;;;5001511;28;20041;-93
2022/06/27 11:49:35;;;;;;;0.10;0.10;;;;;;;;;;5001620;28;20037;-93
2022/06/27 11:52:14;;;;;;;0.10;0.10;;;;;;;;;;5004973;28;20025;-94
2022/06/27 12:02:17;;;;;;;0.10;0.10;;;;;;;;;;4922156;29;20052;-93
2022/06/27 12:04:43;;;;;;;0.10;0.10;;;;;;;;;;4908655;28;20137;-94
2022/06/27 12:09:56;;;;;;;0.10;0.10;;;;;;;;;;5273836;22;20420;-92
2022/06/27 12:12:26;;;;;;;0.10;0.10;;;;;;;;;;5024234;28;20136;-94
2022/06/27 12:14:53;;;;;;;0.10;0.10;;;;;;;;;;5059020;23;20054;-92
2022/06/27 12:17:19;;;;;;;0.10;0.10;;;;;;;;;;5062308;28;20050;-92
2022/06/27 12:19:45;;;;;;;0.10;0.10;;;;;;;;;;5045136;28;20042;-94
2022/06/27 12:22:21;;;;;;;0.10;0.10;;;;;;;;;;5072873;28;20043;-94
2022/06/27 12:24:47;;;;;;;0.10;0.10;;;;;;;;;;5064875;28;20127;-92
2022/06/27 12:27:13;;;;;;;0.10;0.10;;;;;;;;;;5064140;28;20080;-92
2022/06/27 12:29:39;;;;;;;0.10;0.10;;;;;;;;;;5064071;28;20543;-91
2022/06/27 12:32:05;;;;;;;0.10;0.10;;;;;;;;;;5063764;28;20047;-90
2022/06/27 12:34:32;;;;;;;0.10;0.10;;;;;;;;;;5063429;28;20040;-91
2022/06/27 12:36:58;;;;;;;0.20;0.20;;;;;;;;;;5080490;28;20043;-91
2022/06/27 12:39:24;;;;;;;0.10;0.10;;;;;;;;;;5064103;28;20039;-90
2022/06/27 12:41:50;;;;;;;0.20;0.20;;;;;;;;;;5063337;28;20042;-90
2022/06/27 12:44:16;;;;;;;0.10;0.10;;;;;;;;;;5063985;28;20473;-93
2022/06/27 12:46:42;;;;;;;0.10;0.10;;;;;;;;;;5063720;28;20047;-93
2022/06/27 12:49:08;;;;;;;0.20;0.20;;;;;;;;;;5064229;28;20050;-93
2022/06/27 12:51:34;;;;;;;0.10;0.10;;;;;;;;;;5065028;28;20047;-92
2022/06/27 12:54:00;;;;;;;0.10;0.10;;;;;;;;;;5085064;28;20047;-92
2022/06/27 12:56:26;;;;;;;0.10;0.10;;;;;;;;;;5067120;28;20127;-92
2022/06/27 12:58:52;;;;;;;0.10;0.10;;;;;;;;;;5064538;28;20070;-92
2022/06/27 13:01:18;;;;;;;0.10;0.10;;;;;;;;;;5081546;28;20085;-92
2022/06/27 13:03:44;;;;;;;0.10;0.10;;;;;;;;;;5083843;28;20096;-93
2022/06/27 13:06:11;;;;;;;0.10;0.10;;;;;;;;;;5063943;28;20130;-93
2022/06/27 13:08:38;;;;;;;0.10;0.10;;;;;;;;;;5406785;23;20099;-88
2022/06/27 13:11:04;;;;;;;0.15;0.15;;;;;;;;;;5099873;27;20066;-91
2022/06/27 13:13:30;;;;;;;0.10;0.10;;;;;;;;;;5100016;27;20047;-92
2022/06/27 13:15:56;;;;;;;0.20;0.20;;;;;;;;;;5083438;27;20035;-93
2022/06/27 13:18:22;;;;;;;0.10;0.10;;;;;;;;;;5082924;27;20035;-92
2022/06/27 13:20:48;;;;;;;0.10;0.10;;;;;;;;;;5099635;27;20130;-92
2022/06/27 13:23:14;;;;;;;0.10;0.10;;;;;;;;;;5094349;28;20067;-92
2022/06/27 13:25:40;;;;;;;0.10;0.10;;;;;;;;;;5062695;28;20040;-92
2022/06/27 13:28:06;;;;;;;0.10;0.10;;;;;;;;;;5062794;28;20092;-91
2022/06/27 13:30:32;;;;;;;0.10;0.10;;;;;;;;;;5062622;28;20096;-91
2022/06/27 13:32:59;;;;;;;0.10;0.10;;;;;;;;;;5062744;28;20047;-92
2022/06/27 13:35:26;;;;;;;0.10;0.10;;;;;;;;;;5080593;28;20570;-94
2022/06/27 13:37:52;;;;;;;0.10;0.10;;;;;;;;;;5063100;28;20080;-95
2022/06/27 13:40:18;;;;;;;0.10;0.10;;;;;;;;;;5063038;28;20042;-95
2022/06/27 13:42:44;;;;;;;0.10;0.10;;;;;;;;;;5062602;28;20043;-94
2022/06/27 13:45:10;;;;;;;0.20;0.20;;;;;;;;;;5079745;28;20411;-93
2022/06/27 13:47:36;;;;;;;0.28;0.28;;;;;;;;;;5062768;28;20483;-93
2022/06/27 13:50:03;;;;;;;0.10;0.10;;;;;;;;;;5062688;28;20059;-93
2022/06/27 13:52:31;;;;;;;0.10;0.10;;;;;;;;;;5082906;28;20047;-96
2022/06/27 13:54:57;;;;;;;0.10;0.10;;;;;;;;;;5064729;28;20043;-89
2022/06/27 13:57:23;;;;;;;0.10;0.10;;;;;;;;;;5061989;28;20036;-88
2022/06/27 13:59:50;;;;;;;0.20;0.20;;;;;;;;;;5078252;28;20039;-92
2022/06/27 14:02:16;;;;;;;0.10;0.10;;;;;;;;;;5061450;28;20591;-89
2022/06/27 14:04:42;;;;;;;0.10;0.10;;;;;;;;;;5061289;28;20048;-88
2022/06/27 14:09:52;;;;;;;0.10;0.10;;;;;;;;;;5080714;28;20494;-94
2022/06/27 14:12:18;;;;;;;0.10;0.10;;;;;;;;;;5062054;28;20126;-95
2022/06/27 14:14:44;;;;;;;0.10;0.10;;;;;;;;;;5062186;28;20070;-92
2022/06/27 14:17:11;;;;;;;0.20;0.20;;;;;;;;;;5062379;28;20439;-94
2022/06/27 14:19:37;;;;;;;0.10;0.10;;;;;;;;;;5078660;28;20127;-94
2022/06/27 14:22:04;;;;;;;0.10;0.10;;;;;;;;;;5062617;28;20036;-94
2022/06/27 14:24:35;;;;;;;0.10;0.10;;;;;;;;;;5062332;28;20043;-94
2022/06/27 14:27:01;;;;;;;0.10;0.10;;;;;;;;;;5062016;28;20035;-94
2022/06/27 14:29:27;;;;;;;0.10;0.10;;;;;;;;;;5062668;28;20338;-92
2022/06/27 14:31:53;;;;;;;0.10;0.10;;;;;;;;;;5062159;28;20474;-94
2022/06/27 14:34:19;;;;;;;0.10;0.10;;;;;;;;;;5061628;28;20490;-90
2022/06/27 14:36:45;;;;;;;0.10;0.10;;;;;;;;;;5078263;28;20046;-92
2022/06/27 14:39:12;;;;;;;0.10;0.10;;;;;;;;;;5062566;28;20044;-93
2022/06/27 14:41:41;;;;;;;0.10;0.10;;;;;;;;;;5077984;28;20040;-90
2022/06/27 14:44:07;;;;;;;0.10;0.10;;;;;;;;;;5078051;28;20535;-89
2022/06/27 14:46:33;;;;;;;0.20;0.20;;;;;;;;;;5077740;28;20043;-90
2022/06/27 14:48:59;;;;;;;0.10;0.10;;;;;;;;;;5061206;28;20052;-91
2022/06/27 14:51:26;;;;;;;0.10;0.10;;;;;;;;;;5076445;28;20067;-90
2022/06/27 14:53:52;;;;;;;0.10;0.10;;;;;;;;;;5060167;28;20043;-91
2022/06/27 14:56:18;;;;;;;0.10;0.10;;;;;;;;;;5065365;28;20490;-94
2022/06/27 14:58:44;;;;;;;0.40;0.40;;;;;;;;;;5076806;28;20190;-92
2022/06/27 15:01:10;;;;;;;0.10;0.10;;;;;;;;;;5081778;28;20052;-92
2022/06/27 15:03:36;;;;;;;0.10;0.10;;;;;;;;;;5082091;28;20613;-92